PILOTS ONLINE: 192    ATC ONLINE: 30

KBLH

Blythe Airport

Location

IATA BLH
City Blythe
Country  United States
Latitude 33° 37' 9" N
Longitude 114° 43' 1" W
Elevation 399 ft
Type Medium Airport

Map

Weather

METAR
2014/09/01 06:52
KBLH 010652Z AUTO 16012KT 10SM CLR 32/12 A2969 RMK AO2 SLP046 T03220117
TAF
2014/09/01 06:21
TAF KBLH 010520Z 0106/0206 16005KT P6SM SKC 
      TEMPO 0110/0114 VRB05KT 
     FM011700 17010KT P6SM SKC 
     FM020200 23008KT P6SM SKC

Runways

08/26 6543 ft / 150 ft
17/35 5800 ft / 100 ft

Outbound flights

Callsign Flying to Pilot ATD/STD ETA Aircraft

Inbound flights

Callsign Flying from Pilot ATD ETA Aircraft